Time;durP1;ratioP1;P1;durP2;ratioP2;P2;SDS_P1;SDS_P2;PMS_P1;PMS_P2;Temp;Humidity;BMP_temperature;BMP_pressure;BME280_temperature;BME280_humidity;BME280_pressure;Samples;Min_cycle;Max_cycle;Signal;HPM_P1;HPM_P2
2022/05/06 00:00:11;;;;;;;12.93;7.15;;;18.60;78.60;;;;;;4939534;29;20374;-70
2022/05/06 00:02:37;;;;;;;10.05;6.65;;;18.80;81.70;;;;;;4941351;29;20066;-71
2022/05/06 00:05:03;;;;;;;13.13;6.97;;;18.70;81.50;;;;;;4939738;29;20052;-70
2022/05/06 00:07:29;;;;;;;11.60;6.97;;;18.60;81.40;;;;;;4922748;29;20060;-70
2022/05/06 00:09:55;;;;;;;11.80;7.15;;;18.70;81.70;;;;;;4922295;29;20051;-70
2022/05/06 00:12:21;;;;;;;11.25;6.55;;;;;;;;;;4906971;29;20051;-71
2022/05/06 00:14:47;;;;;;;10.48;6.72;;;18.70;81.60;;;;;;4925381;29;20047;-71
2022/05/06 00:17:12;;;;;;;11.85;7.05;;;18.50;79.00;;;;;;4924406;29;20382;-70
2022/05/06 00:19:38;;;;;;;10.55;7.20;;;18.70;81.80;;;;;;4924527;29;20131;-71
2022/05/06 00:22:04;;;;;;;11.75;6.93;;;18.70;81.40;;;;;;4922063;29;20047;-70
2022/05/06 00:24:30;;;;;;;10.95;6.97;;;18.40;81.50;;;;;;4936109;29;20409;-70
2022/05/06 00:26:59;;;;;;;13.73;8.02;;;18.40;81.50;;;;;;4953725;29;20055;-71
2022/05/06 00:29:25;;;;;;;13.25;7.43;;;18.70;81.60;;;;;;4941129;29;20389;-70
2022/05/06 00:31:51;;;;;;;10.73;7.22;;;;;;;;;;4942253;29;20047;-70
2022/05/06 00:34:17;;;;;;;11.38;7.53;;;18.50;81.50;;;;;;4956681;29;20055;-70
2022/05/06 00:36:44;;;;;;;13.77;7.78;;;;;;;;;;4956955;29;20101;-70
2022/05/06 00:39:10;;;;;;;12.38;8.27;;;;;;;;;;4953162;29;20051;-69
2022/05/06 00:41:36;;;;;;;11.43;7.70;;;18.70;79.10;;;;;;4921224;29;20497;-68
2022/05/06 00:44:06;;;;;;;11.68;7.90;;;18.10;81.50;;;;;;4921689;29;20058;-69
2022/05/06 00:46:32;;;;;;;11.80;7.55;;;;;;;;;;4938965;29;20446;-70
2022/05/06 00:48:58;;;;;;;14.63;8.20;;;;;;;;;;4911394;29;20042;-70
2022/05/06 00:51:24;;;;;;;12.60;7.90;;;;;;;;;;4938017;29;20051;-69
2022/05/06 00:53:51;;;;;;;11.75;7.72;;;18.50;81.80;;;;;;4941324;29;20122;-69
2022/05/06 00:56:17;;;;;;;12.98;8.02;;;;;;;;;;4940900;29;20110;-64
2022/05/06 00:58:44;;;;;;;13.98;9.15;;;18.50;81.70;;;;;;4941346;29;20047;-65
2022/05/06 01:01:10;;;;;;;12.60;8.18;;;18.30;78.90;;;;;;4926300;29;20047;-65
2022/05/06 01:03:36;;;;;;;12.00;8.15;;;18.20;81.60;;;;;;4939153;29;20070;-65
2022/05/06 01:06:07;;;;;;;12.43;7.68;;;18.30;78.90;;;;;;4958029;29;20047;-64
2022/05/06 01:08:34;;;;;;;11.60;7.43;;;18.30;80.40;;;;;;4928069;29;20052;-65
2022/05/06 01:11:00;;;;;;;11.32;7.22;;;18.60;81.60;;;;;;4937206;29;20048;-65
2022/05/06 01:13:27;;;;;;;12.77;8.07;;;18.20;81.90;;;;;;4956538;29;20054;-64
2022/05/06 01:15:56;;;;;;;10.80;7.50;;;18.40;81.70;;;;;;4957623;29;20401;-65
2022/05/06 01:18:22;;;;;;;11.82;7.70;;;18.40;81.70;;;;;;4957316;29;20043;-64
2022/05/06 01:20:52;;;;;;;13.65;7.05;;;18.50;81.60;;;;;;4957243;29;20054;-65
2022/05/06 01:23:20;;;;;;;11.70;7.78;;;18.10;78.70;;;;;;4918000;29;20048;-64
2022/05/06 01:25:46;;;;;;;11.13;7.82;;;18.00;81.20;;;;;;4921149;29;20048;-63
2022/05/06 01:28:13;;;;;;;11.65;7.10;;;18.50;81.50;;;;;;4905199;29;20378;-65
2022/05/06 01:30:42;;;;;;;11.57;7.88;;;18.30;78.70;;;;;;4889605;29;20047;-64
2022/05/06 01:33:09;;;;;;;10.73;6.93;;;18.40;81.50;;;;;;4906375;29;20067;-64
2022/05/06 01:35:45;;;;;;;11.15;7.53;;;18.40;78.70;;;;;;4924295;29;20083;-64
2022/05/06 01:38:26;;;;;;;11.80;7.97;;;18.10;81.20;;;;;;4932190;29;20084;-69
2022/05/06 01:41:08;;;;;;;13.65;8.23;;;18.30;81.40;;;;;;4914133;29;20054;-70
2022/05/06 01:43:39;;;;;;;19.70;7.47;;;18.30;79.30;;;;;;4900912;29;20063;-70
2022/05/06 01:46:06;;;;;;;10.88;7.45;;;18.30;81.30;;;;;;4902205;29;20084;-69
2022/05/06 01:48:32;;;;;;;11.25;7.68;;;18.30;81.20;;;;;;4889515;29;20044;-70
2022/05/06 01:50:58;;;;;;;12.07;8.10;;;18.20;81.60;;;;;;4905016;29;20039;-70
2022/05/06 01:53:24;;;;;;;11.85;7.75;;;;;;;;;;4901980;29;20135;-70
2022/05/06 01:55:50;;;;;;;11.13;7.40;;;;;;;;;;4918631;29;20091;-71
2022/05/06 01:58:17;;;;;;;10.70;6.95;;;;;;;;;;4931746;29;20087;-71
2022/05/06 02:00:42;;;;;;;11.43;7.28;;;18.20;81.10;;;;;;4920326;29;20075;-71
2022/05/06 02:05:16;;;;;;;11.93;7.00;;;18.30;81.10;;;;;;4937250;29;20047;-70
2022/05/06 02:05:54;;;;;;;10.77;7.40;;;;;;;;;;4907218;29;20063;-70
2022/05/06 02:08:20;;;;;;;10.05;6.78;;;18.20;81.10;;;;;;4917089;29;20055;-70
2022/05/06 02:10:46;;;;;;;10.82;7.32;;;;;;;;;;4902110;29;20052;-70
2022/05/06 02:13:12;;;;;;;13.30;7.85;;;18.10;81.20;;;;;;4916671;29;20099;-70
2022/05/06 02:15:38;;;;;;;11.82;7.18;;;18.10;81.00;;;;;;4921224;29;20131;-71
2022/05/06 02:18:04;;;;;;;10.10;6.65;;;18.00;80.90;;;;;;4918385;29;20048;-70
2022/05/06 02:20:30;;;;;;;12.00;7.75;;;18.40;81.10;;;;;;4918429;29;20047;-64
2022/05/06 02:22:56;;;;;;;11.77;7.05;;;18.50;81.30;;;;;;4917977;29;20127;-65
2022/05/06 02:25:25;;;;;;;11.70;7.20;;;18.20;81.00;;;;;;4919099;29;20056;-63
2022/05/06 02:27:50;;;;;;;11.05;7.28;;;18.20;81.00;;;;;;4936065;29;20111;-65
2022/05/06 02:33:12;;;;;;;11.40;7.30;;;18.40;81.00;;;;;;4945337;29;20059;-64
2022/05/06 02:35:39;;;;;;;12.27;7.50;;;18.20;80.90;;;;;;4924020;29;20047;-65
2022/05/06 02:38:05;;;;;;;11.77;7.82;;;18.40;81.10;;;;;;4924570;29;20055;-65
2022/05/06 02:40:34;;;;;;;11.88;7.93;;;18.10;81.00;;;;;;4923289;29;20061;-64
2022/05/06 02:43:01;;;;;;;11.10;7.07;;;18.20;81.00;;;;;;4954656;29;20072;-65
2022/05/06 02:45:27;;;;;;;11.40;6.75;;;18.30;81.40;;;;;;4955999;29;20453;-64
2022/05/06 02:47:53;;;;;;;11.15;6.70;;;18.30;81.30;;;;;;4926415;29;20062;-65
2022/05/06 02:50:19;;;;;;;8.70;6.35;;;18.00;81.00;;;;;;4919801;29;20390;-64
2022/05/06 02:52:45;;;;;;;8.82;5.68;;;17.90;80.90;;;;;;4936806;29;20057;-65
2022/05/06 02:55:11;;;;;;;10.15;5.32;;;18.40;81.10;;;;;;4936782;29;20386;-65
2022/05/06 02:57:37;;;;;;;9.07;6.07;;;18.10;80.90;;;;;;4949023;29;20031;-65
2022/05/06 03:00:03;;;;;;;7.95;5.53;;;18.20;81.30;;;;;;4938302;29;20134;-65
2022/05/06 03:02:29;;;;;;;9.27;5.43;;;18.20;81.20;;;;;;4955881;29;20040;-65
2022/05/06 03:04:55;;;;;;;8.30;5.18;;;18.00;81.00;;;;;;4933352;29;20506;-65
2022/05/06 03:07:22;;;;;;;9.63;5.50;;;18.20;81.00;;;;;;4936498;29;20043;-65
2022/05/06 03:09:47;;;;;;;9.02;5.32;;;18.30;81.30;;;;;;4936232;29;20051;-64
2022/05/06 03:12:15;;;;;;;8.60;6.05;;;17.90;78.20;;;;;;4952702;29;20039;-64
2022/05/06 03:14:40;;;;;;;8.35;5.65;;;18.10;81.10;;;;;;4955634;29;20393;-64
2022/05/06 03:17:07;;;;;;;7.97;5.47;;;;;;;;;;4955293;29;20058;-71
2022/05/06 03:19:34;;;;;;;9.73;6.07;;;18.10;81.10;;;;;;4938380;29;20039;-70
2022/05/06 03:21:59;;;;;;;9.15;5.45;;;18.10;78.40;;;;;;4932199;29;20161;-70
2022/05/06 03:24:26;;;;;;;9.25;5.85;;;;;;;;;;4902676;29;20127;-70
2022/05/06 03:26:52;;;;;;;7.85;5.30;;;;;;;;;;4936273;29;20134;-70
2022/05/06 03:29:18;;;;;;;7.97;5.43;;;;;;;;;;4936353;29;20055;-68
2022/05/06 03:31:44;;;;;;;7.97;5.43;;;18.20;81.20;;;;;;4923024;29;20051;-66
2022/05/06 03:34:09;;;;;;;8.35;5.55;;;17.90;81.90;;;;;;4906792;29;20375;-65
2022/05/06 03:36:35;;;;;;;9.07;6.43;;;;;;;;;;4937778;29;20051;-70
2022/05/06 03:39:03;;;;;;;8.90;6.13;;;18.20;81.40;;;;;;4941431;29;20048;-70
2022/05/06 03:41:29;;;;;;;8.95;5.75;;;;;;;;;;4936299;29;20142;-70
2022/05/06 03:43:55;;;;;;;8.73;5.40;;;;;;;;;;4918920;29;20536;-71
2022/05/06 03:46:21;;;;;;;9.13;5.63;;;18.00;81.90;;;;;;4936162;29;20131;-69
2022/05/06 03:48:47;;;;;;;8.70;5.97;;;17.90;81.10;;;;;;4946801;29;20079;-70
2022/05/06 03:51:22;;;;;;;8.40;5.43;;;;;;;;;;4938337;29;20047;-71
2022/05/06 03:53:57;;;;;;;9.40;5.50;;;18.30;81.60;;;;;;4955013;29;20088;-71
2022/05/06 03:56:23;;;;;;;7.88;5.35;;;;;;;;;;4947146;29;20039;-70
2022/05/06 03:58:50;;;;;;;7.38;4.95;;;17.90;81.40;;;;;;4937570;29;20127;-66
2022/05/06 04:01:17;;;;;;;7.05;5.18;;;;;;;;;;4936072;29;20386;-65
2022/05/06 04:03:42;;;;;;;7.57;4.88;;;18.10;81.30;;;;;;4936365;29;20055;-64
2022/05/06 04:06:08;;;;;;;7.50;4.93;;;18.30;81.60;;;;;;4935803;29;20509;-64
2022/05/06 04:08:34;;;;;;;7.47;4.82;;;18.10;81.10;;;;;;4936541;29;20040;-66
2022/05/06 04:11:00;;;;;;;9.25;6.00;;;18.10;78.30;;;;;;4945398;29;20043;-64
2022/05/06 04:13:26;;;;;;;7.68;5.38;;;17.80;80.90;;;;;;4946127;29;20044;-64
2022/05/06 04:15:51;;;;;;;8.93;5.80;;;18.20;78.40;;;;;;4949480;29;20043;-64
2022/05/06 04:18:17;;;;;;;8.80;5.43;;;18.20;78.30;;;;;;4941515;29;20051;-64
2022/05/06 04:23:30;;;;;;;9.23;6.22;;;18.20;78.40;;;;;;4930995;29;20637;-64
2022/05/06 04:25:58;;;;;;;10.30;6.43;;;18.10;81.20;;;;;;4925583;29;20050;-64
2022/05/06 04:28:24;;;;;;;10.18;6.35;;;18.00;78.20;;;;;;4958364;29;20401;-65
2022/05/06 04:30:51;;;;;;;10.88;6.68;;;18.10;80.90;;;;;;4932038;29;20044;-66
2022/05/06 04:33:18;;;;;;;8.80;6.05;;;18.20;78.20;;;;;;4939016;29;20063;-64
2022/05/06 04:35:44;;;;;;;9.30;6.45;;;18.10;78.90;;;;;;4922149;29;20114;-64
2022/05/06 04:38:11;;;;;;;9.27;6.47;;;18.40;81.60;;;;;;4906292;29;20130;-64
2022/05/06 04:40:40;;;;;;;11.00;7.03;;;18.20;80.80;;;;;;4940401;29;20039;-70
2022/05/06 04:43:09;;;;;;;10.02;6.90;;;18.10;80.80;;;;;;4921739;29;20063;-70
2022/05/06 04:45:38;;;;;;;9.32;6.35;;;18.40;81.30;;;;;;4905878;29;20054;-71
2022/05/06 04:48:08;;;;;;;10.65;6.95;;;18.40;80.90;;;;;;4934676;29;20047;-70
2022/05/06 04:50:34;;;;;;;10.00;6.85;;;18.40;80.80;;;;;;4941716;29;20421;-69
2022/05/06 04:53:01;;;;;;;10.45;6.63;;;18.50;80.90;;;;;;4920653;29;20063;-71
2022/05/06 04:55:26;;;;;;;10.20;7.00;;;18.40;80.80;;;;;;4938800;29;20069;-69
2022/05/06 04:57:52;;;;;;;9.38;6.82;;;18.40;80.90;;;;;;4922671;29;20123;-70
2022/05/06 05:00:22;;;;;;;10.88;7.72;;;18.50;80.90;;;;;;4940532;29;20058;-71
2022/05/06 05:02:48;;;;;;;10.10;6.93;;;18.60;80.90;;;;;;4938714;29;20043;-70
2022/05/06 05:05:15;;;;;;;9.70;6.95;;;18.40;80.80;;;;;;4917186;29;20059;-71
2022/05/06 05:07:41;;;;;;;10.63;6.97;;;18.40;80.90;;;;;;4940625;29;20051;-70
2022/05/06 05:10:08;;;;;;;12.63;8.20;;;18.20;78.10;;;;;;4942652;29;20047;-70
2022/05/06 05:12:35;;;;;;;11.38;7.40;;;18.40;80.80;;;;;;4940642;29;20059;-69
2022/05/06 05:15:02;;;;;;;11.52;7.65;;;;;;;;;;4940181;29;20489;-69
2022/05/06 05:17:28;;;;;;;11.35;7.32;;;;;;;;;;4953799;29;20119;-70
2022/05/06 05:19:54;;;;;;;12.15;8.25;;;18.50;78.20;;;;;;4921510;29;20055;-70
2022/05/06 05:22:20;;;;;;;11.80;8.27;;;;;;;;;;4936656;29;20094;-69
2022/05/06 05:24:46;;;;;;;12.50;8.48;;;18.60;81.10;;;;;;4957407;29;20047;-70
2022/05/06 05:27:13;;;;;;;11.13;8.20;;;18.50;78.30;;;;;;4957419;28;20043;-70
2022/05/06 05:29:39;;;;;;;15.02;9.52;;;;;;;;;;4907564;29;20152;-66
2022/05/06 05:32:06;;;;;;;15.10;9.57;;;18.80;81.10;;;;;;4905074;29;20063;-70
2022/05/06 05:34:31;;;;;;;15.25;8.65;;;18.40;80.80;;;;;;4909960;29;20405;-71
2022/05/06 05:36:57;;;;;;;12.93;9.10;;;18.70;81.00;;;;;;4924036;29;20043;-70
2022/05/06 05:39:23;;;;;;;13.48;9.13;;;18.40;78.20;;;;;;4948066;29;20062;-68
2022/05/06 05:50:29;;;;;;;15.82;10.02;;;18.90;81.20;;;;;;4873038;29;20099;-71
2022/05/06 05:52:55;;;;;;;16.23;10.30;;;;;;;;;;4851548;29;20060;-70
2022/05/06 05:55:22;;;;;;;16.80;10.93;;;18.70;81.00;;;;;;4897491;29;20088;-71
2022/05/06 05:57:47;;;;;;;17.77;10.65;;;18.90;81.40;;;;;;4897658;29;20435;-70
2022/05/06 06:00:13;;;;;;;17.33;10.48;;;18.90;77.90;;;;;;4879323;29;20061;-70
2022/05/06 06:02:40;;;;;;;14.57;9.75;;;18.70;81.40;;;;;;4863292;29;20141;-70
2022/05/06 06:05:06;;;;;;;15.93;10.02;;;18.70;81.40;;;;;;4863380;29;20144;-69
2022/05/06 06:07:32;;;;;;;14.52;9.55;;;19.10;81.40;;;;;;4854120;29;20096;-70
2022/05/06 06:09:58;;;;;;;17.30;10.07;;;19.00;78.80;;;;;;4863348;29;20109;-68
2022/05/06 06:12:24;;;;;;;15.82;9.55;;;18.80;78.70;;;;;;4873929;29;20055;-70
2022/05/06 06:14:55;;;;;;;17.40;9.80;;;19.00;81.40;;;;;;4873505;29;20085;-71
2022/05/06 06:17:22;;;;;;;14.02;9.45;;;19.30;81.50;;;;;;4844873;29;20057;-69
2022/05/06 06:19:49;;;;;;;13.52;9.57;;;19.00;81.30;;;;;;4860563;29;20057;-69
2022/05/06 06:22:15;;;;;;;16.15;9.68;;;19.40;81.70;;;;;;4918079;29;20052;-66
2022/05/06 06:24:41;;;;;;;16.58;9.30;;;;;;;;;;4936218;29;20047;-66
2022/05/06 06:27:10;;;;;;;17.17;9.63;;;19.50;81.90;;;;;;4919787;29;20056;-67
2022/05/06 06:29:39;;;;;;;14.45;8.57;;;19.50;81.60;;;;;;4920345;29;20040;-67
2022/05/06 06:32:06;;;;;;;15.52;9.68;;;19.70;81.70;;;;;;4920113;29;20151;-66
2022/05/06 06:34:32;;;;;;;13.98;9.18;;;19.60;81.70;;;;;;4904780;29;20071;-66
2022/05/06 06:37:07;;;;;;;16.05;9.32;;;19.50;81.60;;;;;;4904495;29;20445;-63
2022/05/06 06:39:34;;;;;;;13.75;8.93;;;19.90;81.70;;;;;;4919610;29;20083;-71
2022/05/06 06:42:00;;;;;;;13.50;8.90;;;19.80;81.50;;;;;;4943097;29;20119;-71
2022/05/06 06:44:25;;;;;;;12.93;8.15;;;19.90;79.00;;;;;;4939952;29;20085;-66
2022/05/06 06:46:53;;;;;;;15.63;8.85;;;20.10;81.50;;;;;;4920163;29;20079;-63
2022/05/06 06:49:19;;;;;;;14.75;8.98;;;20.20;81.60;;;;;;4938957;29;20082;-66
2022/05/06 06:51:45;;;;;;;13.25;8.55;;;20.40;81.30;;;;;;4943968;29;20060;-66
2022/05/06 06:54:11;;;;;;;12.35;8.57;;;;;;;;;;4927753;29;20098;-64
2022/05/06 06:56:37;;;;;;;13.85;9.05;;;20.50;78.80;;;;;;4942802;29;20041;-64
2022/05/06 06:59:03;;;;;;;15.02;9.18;;;20.70;81.20;;;;;;4937063;29;20460;-72
2022/05/06 07:01:32;;;;;;;14.25;8.80;;;;;;;;;;4936265;29;20134;-72
2022/05/06 07:04:00;;;;;;;12.63;9.15;;;20.70;81.00;;;;;;4944472;29;20051;-71
2022/05/06 07:11:56;;;;;;;13.68;8.45;;;20.70;76.30;;;;;;4955413;29;20467;-72
2022/05/06 07:14:23;;;;;;;15.25;9.13;;;20.90;80.70;;;;;;4952773;29;20085;-73
2022/05/06 07:16:49;;;;;;;13.35;8.50;;;20.90;80.60;;;;;;4921211;29;20134;-72
2022/05/06 07:19:15;;;;;;;13.98;8.68;;;20.70;80.60;;;;;;4911078;29;20039;-73
2022/05/06 07:21:41;;;;;;;14.95;8.93;;;20.90;80.50;;;;;;4936929;29;20485;-72
2022/05/06 07:24:08;;;;;;;15.75;8.90;;;21.20;80.80;;;;;;4950430;29;20127;-73
2022/05/06 07:26:34;;;;;;;13.82;9.00;;;;;;;;;;4925590;29;20060;-72
2022/05/06 07:29:00;;;;;;;12.75;8.02;;;;;;;;;;4919469;29;20500;-72
2022/05/06 07:31:26;;;;;;;12.40;8.15;;;20.80;80.50;;;;;;4916738;29;20047;-72
2022/05/06 07:33:52;;;;;;;12.45;8.60;;;;;;;;;;4918622;29;20135;-73
2022/05/06 07:36:18;;;;;;;12.38;8.23;;;20.90;80.40;;;;;;4924767;29;20051;-73
2022/05/06 07:42:32;;;;;;;13.98;8.50;;;21.50;80.70;;;;;;4938454;29;20038;-72
2022/05/06 07:44:58;;;;;;;14.05;8.25;;;21.30;80.30;;;;;;4954426;29;20055;-67
2022/05/06 07:47:24;;;;;;;12.13;7.95;;;21.60;80.40;;;;;;4944120;29;20047;-67
2022/05/06 07:49:50;;;;;;;11.77;7.85;;;21.40;80.10;;;;;;4922583;29;20051;-67
2022/05/06 07:52:15;;;;;;;13.55;8.10;;;21.70;80.20;;;;;;4958884;29;20448;-72
2022/05/06 07:54:41;;;;;;;13.15;7.93;;;21.70;80.40;;;;;;4913785;29;20055;-72
2022/05/06 07:57:07;;;;;;;13.25;8.40;;;21.70;80.00;;;;;;4940348;29;20099;-64
2022/05/06 07:59:33;;;;;;;12.82;7.53;;;22.00;80.00;;;;;;4923891;29;20086;-63
2022/05/06 08:04:48;;;;;;;15.73;9.45;;;;;;;;;;4940746;29;20047;-64
2022/05/06 08:07:14;;;;;;;18.77;9.82;;;21.80;79.70;;;;;;4922239;29;20086;-70
2022/05/06 08:09:40;;;;;;;15.48;10.32;;;22.00;79.70;;;;;;4923257;29;20396;-71
2022/05/06 08:12:06;;;;;;;15.93;10.35;;;21.90;79.50;;;;;;4936086;29;20044;-70
2022/05/06 08:14:32;;;;;;;16.15;10.55;;;;;;;;;;4925014;29;20048;-71
2022/05/06 08:16:59;;;;;;;21.88;11.43;;;22.00;79.40;;;;;;4939627;29;20553;-70
2022/05/06 08:19:25;;;;;;;12.80;10.07;;;22.00;79.30;;;;;;4891230;29;20397;-71
2022/05/06 08:21:51;;;;;;;15.98;10.63;;;22.10;76.40;;;;;;4939486;29;20040;-70
2022/05/06 08:24:17;;;;;;;15.57;10.18;;;22.00;79.30;;;;;;4924168;29;20493;-70
2022/05/06 08:26:43;;;;;;;19.10;12.23;;;22.30;79.40;;;;;;4906317;29;20183;-69
2022/05/06 08:29:09;;;;;;;16.33;10.52;;;22.00;76.40;;;;;;4952924;29;20563;-70
2022/05/06 08:31:38;;;;;;;14.88;10.45;;;22.10;79.10;;;;;;4940928;29;20046;-69
2022/05/06 08:34:10;;;;;;;17.02;11.32;;;22.20;79.00;;;;;;4942006;29;20055;-70
2022/05/06 08:36:36;;;;;;;;;;;22.10;75.10;;;;;;4940147;29;20051;-71
2022/05/06 08:39:03;;;;;;;14.57;10.80;;;22.10;78.80;;;;;;4939224;29;20280;-70
2022/05/06 08:41:29;;;;;;;14.43;10.55;;;;;;;;;;4906260;29;20054;-69
2022/05/06 08:43:56;;;;;;;15.90;10.35;;;22.40;78.80;;;;;;4927879;29;20060;-71
2022/05/06 08:51:51;;;;;;;14.32;10.48;;;22.40;78.60;;;;;;4958093;29;20571;-71
2022/05/06 08:54:17;;;;;;;14.73;10.35;;;22.40;78.50;;;;;;4939313;29;20122;-64
2022/05/06 08:56:43;;;;;;;15.55;10.75;;;22.30;78.40;;;;;;4930316;29;20051;-64
2022/05/06 08:59:09;;;;;;;13.73;10.65;;;22.40;78.40;;;;;;4926144;29;20054;-71
2022/05/06 09:01:35;;;;;;;19.55;10.57;;;22.40;78.50;;;;;;4930861;29;20052;-70
2022/05/06 09:04:01;;;;;;;18.17;10.40;;;22.50;78.60;;;;;;4957536;29;20043;-66
2022/05/06 09:06:28;;;;;;;17.73;10.23;;;22.30;78.70;;;;;;4957423;29;20043;-66
2022/05/06 09:08:55;;;;;;;16.52;10.27;;;22.40;76.30;;;;;;4941067;29;20134;-66
2022/05/06 09:14:06;;;;;;;18.70;9.73;;;22.50;79.30;;;;;;4957475;29;20500;-66
2022/05/06 09:16:41;;;;;;;18.60;9.95;;;22.50;79.40;;;;;;4940239;29;20035;-66
2022/05/06 09:19:21;;;;;;;16.50;10.18;;;22.60;75.60;;;;;;4956896;29;20440;-66
2022/05/06 09:22:04;;;;;;;15.18;9.95;;;22.60;79.50;;;;;;4957572;29;20106;-66
2022/05/06 09:24:30;;;;;;;13.20;9.13;;;22.60;79.50;;;;;;4957267;29;20110;-70
2022/05/06 09:27:04;;;;;;;15.85;9.77;;;22.70;79.50;;;;;;4940133;29;20050;-70
2022/05/06 09:29:31;;;;;;;20.45;10.30;;;22.60;79.50;;;;;;4939949;29;20043;-70
2022/05/06 09:32:23;;;;;;;14.20;10.25;;;22.70;77.00;;;;;;4956995;29;20039;-66
2022/05/06 09:34:58;;;;;;;13.95;9.15;;;22.70;79.40;;;;;;4939900;29;20091;-69
2022/05/06 09:37:34;;;;;;;13.85;9.38;;;22.70;79.50;;;;;;4941278;29;20405;-69
2022/05/06 09:40:08;;;;;;;11.10;8.35;;;22.60;79.50;;;;;;4938076;29;20058;-66
2022/05/06 09:42:38;;;;;;;11.57;8.10;;;22.70;79.40;;;;;;4921033;29;20083;-66
2022/05/06 09:45:05;;;;;;;13.43;7.95;;;22.70;79.30;;;;;;4943361;28;20058;-66
2022/05/06 09:47:33;;;;;;;10.90;7.57;;;22.80;79.40;;;;;;4948534;29;20179;-66
2022/05/06 09:49:59;;;;;;;11.32;8.05;;;;;;;;;;4939315;29;20043;-69
2022/05/06 09:52:25;;;;;;;12.30;7.78;;;22.70;79.20;;;;;;4921417;29;20127;-70
2022/05/06 09:54:51;;;;;;;12.38;8.00;;;22.70;79.20;;;;;;4920538;29;20075;-71
2022/05/06 09:57:20;;;;;;;10.23;6.93;;;22.50;79.10;;;;;;4922181;29;20056;-70
2022/05/06 09:59:47;;;;;;;10.30;6.93;;;22.80;79.30;;;;;;4921494;29;20046;-70
2022/05/06 10:02:14;;;;;;;11.90;7.18;;;22.70;79.20;;;;;;4904879;29;20071;-70
2022/05/06 10:04:40;;;;;;;9.00;6.43;;;;;;;;;;4929171;29;20075;-70
2022/05/06 10:07:16;;;;;;;10.88;6.57;;;22.80;74.60;;;;;;4954410;28;20047;-71
2022/05/06 10:10:01;;;;;;;17.52;6.75;;;22.80;79.60;;;;;;4926513;29;20370;-71
2022/05/06 10:12:41;;;;;;;11.90;6.65;;;22.80;79.40;;;;;;4936770;29;20055;-71
2022/05/06 10:15:08;;;;;;;9.80;6.15;;;22.90;79.60;;;;;;4956575;29;20043;-71
2022/05/06 10:17:48;;;;;;;10.75;5.60;;;22.70;79.50;;;;;;4907762;29;20051;-70
2022/05/06 10:20:43;;;;;;;9.55;5.72;;;22.70;79.50;;;;;;4937283;29;20400;-70
2022/05/06 10:23:15;;;;;;;10.15;5.70;;;22.80;79.50;;;;;;4954586;29;20126;-70
2022/05/06 10:25:41;;;;;;;8.63;5.20;;;;;;;;;;4923752;29;20051;-71
2022/05/06 10:34:13;;;;;;;7.55;5.00;;;22.70;76.50;;;;;;4952426;29;20051;-65
2022/05/06 10:36:43;;;;;;;9.88;5.07;;;22.90;76.60;;;;;;4954746;29;20058;-70
2022/05/06 10:39:38;;;;;;;8.27;4.75;;;23.00;80.10;;;;;;4956152;29;20126;-71
2022/05/06 10:42:16;;;;;;;10.05;4.90;;;22.80;80.10;;;;;;4894639;29;20105;-71
2022/05/06 10:44:45;;;;;;;9.23;5.18;;;23.00;80.30;;;;;;4855108;29;20499;-72
2022/05/06 10:47:11;;;;;;;6.63;4.47;;;22.90;80.20;;;;;;4878659;29;20161;-71
2022/05/06 10:49:39;;;;;;;7.00;4.40;;;22.70;79.90;;;;;;4864936;29;20143;-71
2022/05/06 10:52:22;;;;;;;7.07;4.68;;;22.80;75.40;;;;;;4880174;29;20068;-72
2022/05/06 10:55:00;;;;;;;9.25;4.72;;;22.80;80.00;;;;;;4879512;29;20165;-62
2022/05/06 10:57:28;;;;;;;9.60;4.80;;;22.70;79.70;;;;;;4880772;29;20398;-64
2022/05/06 11:00:06;;;;;;;6.53;4.22;;;22.90;80.00;;;;;;4896560;29;20446;-64
2022/05/06 11:02:33;;;;;;;6.22;4.10;;;22.70;79.50;;;;;;4880779;29;20045;-62
2022/05/06 11:05:00;;;;;;;7.03;3.97;;;22.70;77.00;;;;;;4864139;29;20085;-64
2022/05/06 11:07:26;;;;;;;6.82;4.03;;;23.00;79.60;;;;;;4880151;29;20414;-64
2022/05/06 11:09:52;;;;;;;6.68;4.00;;;22.90;79.30;;;;;;4880919;29;20048;-72
2022/05/06 11:12:31;;;;;;;7.82;4.10;;;23.00;79.50;;;;;;4894870;29;20071;-72
2022/05/06 11:14:57;;;;;;;6.45;4.18;;;23.10;77.20;;;;;;4894580;29;20048;-72
2022/05/06 11:17:24;;;;;;;5.80;3.60;;;23.00;79.20;;;;;;4899757;29;20537;-65
2022/05/06 11:19:51;;;;;;;5.63;3.47;;;23.10;79.20;;;;;;4936544;29;20047;-65
2022/05/06 11:22:17;;;;;;;8.57;3.95;;;22.90;79.00;;;;;;4919122;29;20488;-64
2022/05/06 11:24:43;;;;;;;6.35;3.80;;;23.00;79.00;;;;;;4936978;29;20127;-63
2022/05/06 11:27:19;;;;;;;5.57;3.45;;;23.10;79.20;;;;;;4942673;29;20087;-70
2022/05/06 11:29:55;;;;;;;5.32;3.30;;;23.10;78.90;;;;;;4949806;29;20121;-63
2022/05/06 11:32:21;;;;;;;6.30;3.30;;;22.90;78.70;;;;;;4955223;29;20043;-64
2022/05/06 11:34:47;;;;;;;4.90;3.03;;;23.00;78.90;;;;;;4950762;28;20051;-63
2022/05/06 11:37:45;;;;;;;5.75;3.08;;;22.90;78.60;;;;;;4953065;29;21136;-65
2022/05/06 11:42:51;;;;;;;4.57;2.78;;;22.90;78.50;;;;;;4896466;28;20131;-66
2022/05/06 11:48:09;;;;;;;4.80;3.08;;;23.10;78.60;;;;;;4882287;29;20442;-72
2022/05/06 11:50:35;;;;;;;5.20;2.75;;;22.90;74.50;;;;;;4865872;29;20064;-73
2022/05/06 11:53:02;;;;;;;10.70;3.60;;;22.80;74.70;;;;;;4871369;29;20116;-72
2022/05/06 11:55:29;;;;;;;11.68;3.00;;;22.90;78.50;;;;;;4881308;29;20492;-70
2022/05/06 11:57:56;;;;;;;6.18;3.00;;;;;;;;;;4890530;29;20116;-73
2022/05/06 12:00:22;;;;;;;5.88;2.60;;;22.80;78.40;;;;;;4863309;29;20150;-63
2022/05/06 12:02:49;;;;;;;6.70;2.80;;;22.90;78.50;;;;;;4894250;29;20052;-63
2022/05/06 12:05:15;;;;;;;6.28;2.83;;;22.80;78.50;;;;;;4886299;29;20492;-64
2022/05/06 12:07:42;;;;;;;3.83;2.30;;;22.80;78.50;;;;;;4876444;29;20057;-67
2022/05/06 12:10:08;;;;;;;8.02;2.60;;;22.90;78.50;;;;;;4866156;29;20057;-64
2022/05/06 12:12:34;;;;;;;6.55;2.35;;;22.80;78.50;;;;;;4893685;29;20056;-64
2022/05/06 12:15:09;;;;;;;5.90;2.42;;;22.80;78.60;;;;;;4888177;29;20051;-65
2022/05/06 12:17:38;;;;;;;8.68;2.58;;;22.70;78.50;;;;;;4921007;29;20556;-65
2022/05/06 12:20:04;;;;;;;9.30;3.03;;;23.00;78.70;;;;;;4935658;29;20043;-64
2022/05/06 12:22:30;;;;;;;4.47;2.38;;;22.80;78.70;;;;;;4918869;29;20055;-63
2022/05/06 12:24:58;;;;;;;6.47;2.75;;;23.00;75.80;;;;;;4935673;29;20521;-63
2022/05/06 12:27:31;;;;;;;5.38;2.30;;;22.80;78.70;;;;;;4951264;29;20496;-64
2022/05/06 12:30:01;;;;;;;9.60;2.70;;;23.00;78.80;;;;;;4955058;29;20039;-63
2022/05/06 12:32:31;;;;;;;17.40;2.55;;;22.90;78.60;;;;;;4954384;29;20147;-63
2022/05/06 12:35:07;;;;;;;5.18;2.30;;;22.90;78.50;;;;;;4955005;29;20436;-66
2022/05/06 12:37:33;;;;;;;6.95;2.20;;;22.80;78.40;;;;;;4924256;29;20489;-63
2022/05/06 12:39:59;;;;;;;5.00;2.30;;;23.00;75.50;;;;;;4925411;29;20051;-65
2022/05/06 12:42:25;;;;;;;4.35;2.30;;;22.90;78.40;;;;;;4924301;29;20043;-66
2022/05/06 12:44:51;;;;;;;4.03;2.30;;;22.80;78.60;;;;;;4941094;29;20138;-65
2022/05/06 12:50:06;;;;;;;3.60;2.28;;;23.10;78.50;;;;;;4958395;29;20196;-64
2022/05/06 12:52:33;;;;;;;3.70;2.22;;;22.90;75.40;;;;;;4941190;29;20086;-63
2022/05/06 12:54:59;;;;;;;5.45;2.50;;;23.00;78.50;;;;;;4925069;29;20058;-66
2022/05/06 12:57:25;;;;;;;3.88;2.20;;;23.00;78.70;;;;;;4924877;29;20401;-63
2022/05/06 12:59:51;;;;;;;5.25;2.15;;;22.90;78.50;;;;;;4957435;29;20077;-64
2022/05/06 13:02:17;;;;;;;3.35;2.10;;;23.00;78.50;;;;;;4924971;29;20047;-64
2022/05/06 13:04:43;;;;;;;4.57;2.20;;;22.80;75.40;;;;;;4940842;29;20062;-65
2022/05/06 13:07:08;;;;;;;3.92;2.00;;;23.00;75.70;;;;;;4940430;29;20050;-66
2022/05/06 13:09:34;;;;;;;4.07;2.13;;;22.90;78.60;;;;;;4908644;29;20381;-65
2022/05/06 13:12:01;;;;;;;4.70;2.22;;;22.90;78.60;;;;;;4939186;29;20055;-66
2022/05/06 13:14:27;;;;;;;17.27;2.97;;;23.00;75.50;;;;;;4933385;29;20400;-63
2022/05/06 13:16:56;;;;;;;9.43;2.53;;;22.90;75.80;;;;;;4925423;29;20055;-66
2022/05/06 13:19:22;;;;;;;8.35;2.50;;;22.90;78.80;;;;;;4940474;29;20397;-66
2022/05/06 13:21:47;;;;;;;7.63;2.20;;;23.00;76.00;;;;;;4924380;29;20084;-65
2022/05/06 13:24:14;;;;;;;5.68;2.08;;;22.80;79.00;;;;;;4922072;29;20050;-64
2022/05/06 13:26:39;;;;;;;5.13;2.10;;;23.00;78.80;;;;;;4938295;29;20047;-64
2022/05/06 13:29:06;;;;;;;6.15;2.17;;;23.00;79.20;;;;;;4938364;29;20486;-65
2022/05/06 13:31:32;;;;;;;4.93;2.28;;;22.70;79.00;;;;;;4938185;29;20059;-64
2022/05/06 13:33:58;;;;;;;4.95;1.90;;;22.90;76.40;;;;;;4939517;29;20134;-64
2022/05/06 13:36:23;;;;;;;3.90;2.13;;;22.80;78.80;;;;;;4947335;28;20194;-65
2022/05/06 13:38:49;;;;;;;4.65;2.28;;;22.70;75.90;;;;;;4959062;28;20054;-65
2022/05/06 13:41:16;;;;;;;3.70;2.22;;;22.90;75.90;;;;;;4966287;28;20047;-73
2022/05/06 13:43:42;;;;;;;3.67;2.00;;;22.70;78.80;;;;;;4937335;29;20059;-64